createdAt,value
2022-09-06T00:01:23.709Z,13.40
2022-09-06T00:03:53.934Z,13.39
2022-09-06T00:06:23.927Z,13.34
2022-09-06T00:08:52.130Z,13.29
2022-09-06T00:11:22.322Z,13.30
2022-09-06T00:13:50.906Z,13.33
2022-09-06T00:16:29.786Z,13.31
2022-09-06T00:18:59.368Z,13.24
2022-09-06T00:21:29.874Z,13.18
2022-09-06T00:23:58.172Z,13.12
2022-09-06T00:26:26.841Z,13.04
2022-09-06T00:28:55.103Z,12.99
2022-09-06T00:31:26.076Z,12.95
2022-09-06T00:33:54.850Z,12.91
2022-09-06T00:36:24.043Z,12.90
2022-09-06T00:38:53.110Z,12.91
2022-09-06T00:41:22.017Z,12.92
2022-09-06T00:43:50.365Z,12.92
2022-09-06T00:46:23.961Z,12.89
2022-09-06T00:48:59.137Z,12.86
2022-09-06T00:51:30.474Z,12.82
2022-09-06T00:54:03.432Z,12.74
2022-09-06T00:56:35.596Z,12.72
2022-09-06T00:59:04.288Z,12.69
2022-09-06T01:01:34.293Z,12.67
2022-09-06T01:04:04.069Z,12.61
2022-09-06T01:06:44.425Z,12.57
2022-09-06T01:09:25.095Z,12.55
2022-09-06T01:11:59.627Z,12.54
2022-09-06T01:14:46.296Z,12.52
2022-09-06T01:17:46.491Z,12.51
2022-09-06T01:20:25.150Z,12.53
2022-09-06T01:23:31.007Z,12.57
2022-09-06T01:26:18.620Z,12.58
2022-09-06T01:28:48.830Z,12.54
2022-09-06T01:31:23.092Z,12.44
2022-09-06T01:33:58.332Z,12.34
2022-09-06T01:36:33.435Z,12.29
2022-09-06T01:39:02.260Z,12.26
2022-09-06T01:41:31.487Z,12.25
2022-09-06T01:44:00.306Z,12.21
2022-09-06T01:46:57.339Z,12.17
2022-09-06T01:50:05.861Z,12.12
2022-09-06T01:52:44.398Z,12.04
2022-09-06T01:55:28.543Z,11.99
2022-09-06T01:57:59.698Z,11.94
2022-09-06T02:00:27.864Z,11.87
2022-09-06T02:03:03.188Z,11.83
2022-09-06T02:05:51.369Z,11.78
2022-09-06T02:08:28.508Z,11.75
2022-09-06T02:11:02.178Z,11.74
2022-09-06T02:13:36.892Z,11.66
2022-09-06T02:16:09.071Z,11.67
2022-09-06T02:18:43.991Z,11.66
2022-09-06T02:21:17.708Z,11.66
2022-09-06T02:23:47.630Z,11.66
2022-09-06T02:26:22.226Z,11.65
2022-09-06T02:28:50.750Z,11.60
2022-09-06T02:31:33.864Z,11.58
2022-09-06T02:34:03.072Z,11.61
2022-09-06T02:36:32.497Z,11.63
2022-09-06T02:39:05.885Z,11.62
2022-09-06T02:41:35.292Z,11.63
2022-09-06T02:44:03.978Z,11.68
2022-09-06T02:46:33.156Z,11.74
2022-09-06T02:49:02.330Z,11.76
2022-09-06T02:51:31.255Z,11.70
2022-09-06T02:53:59.484Z,11.64
2022-09-06T02:56:29.281Z,11.64
2022-09-06T02:58:57.669Z,11.68
2022-09-06T03:01:26.675Z,11.72
2022-09-06T03:03:54.934Z,11.73
2022-09-06T03:06:23.948Z,11.73
2022-09-06T03:08:52.313Z,11.65
2022-09-06T03:11:21.804Z,11.64
2022-09-06T03:13:51.206Z,11.66
2022-09-06T03:16:20.428Z,11.69
2022-09-06T03:18:49.625Z,11.69
2022-09-06T03:21:17.810Z,11.67
2022-09-06T03:23:46.121Z,11.67
2022-09-06T03:26:16.332Z,11.71
2022-09-06T03:28:46.155Z,11.73
2022-09-06T03:31:14.532Z,11.72
2022-09-06T03:33:43.251Z,11.71
2022-09-06T03:36:11.961Z,11.70
2022-09-06T03:38:40.404Z,11.75
2022-09-06T03:41:09.354Z,11.81
2022-09-06T03:43:37.652Z,11.81
2022-09-06T03:46:06.116Z,11.81
2022-09-06T03:48:34.494Z,11.83
2022-09-06T03:51:04.071Z,11.84
2022-09-06T03:53:32.853Z,11.85
2022-09-06T03:56:01.056Z,11.89
2022-09-06T03:58:32.204Z,11.97
2022-09-06T04:01:07.392Z,12.06
2022-09-06T04:03:37.076Z,12.11
2022-09-06T04:06:07.832Z,12.14
2022-09-06T04:08:37.589Z,12.18
2022-09-06T04:11:06.814Z,12.26
2022-09-06T04:13:36.694Z,12.36
2022-09-06T04:16:06.574Z,12.50
2022-09-06T04:18:35.864Z,12.66
2022-09-06T04:21:05.964Z,12.81
2022-09-06T04:23:37.742Z,12.91
2022-09-06T04:26:08.332Z,12.90
2022-09-06T04:28:36.821Z,12.88
2022-09-06T04:31:05.630Z,12.85
2022-09-06T04:33:36.707Z,12.82
2022-09-06T04:36:08.919Z,12.83
2022-09-06T04:38:43.412Z,12.85
2022-09-06T04:41:13.001Z,12.93
2022-09-06T04:43:43.790Z,13.00
2022-09-06T04:46:28.242Z,13.08
2022-09-06T04:49:04.325Z,13.20
2022-09-06T04:51:39.398Z,13.30
2022-09-06T04:54:11.298Z,13.37
2022-09-06T04:56:56.024Z,13.50
2022-09-06T04:59:31.589Z,13.61
2022-09-06T05:02:00.939Z,13.69
2022-09-06T05:04:36.660Z,13.79
2022-09-06T05:07:14.690Z,13.88
2022-09-06T05:09:43.457Z,14.00
2022-09-06T05:12:12.693Z,14.09
2022-09-06T05:14:41.257Z,14.17
2022-09-06T05:17:10.237Z,14.28
2022-09-06T05:19:39.093Z,14.37
2022-09-06T05:22:07.513Z,14.51
2022-09-06T05:24:36.156Z,14.63
2022-09-06T05:27:05.759Z,14.77
2022-09-06T06:35:25.622Z,22.51
2022-09-06T06:38:03.942Z,23.19
2022-09-06T06:40:39.166Z,23.73
2022-09-06T06:43:15.250Z,24.27
2022-09-06T09:21:10.855Z,31.11
2022-09-06T09:24:06.600Z,31.53
2022-09-06T09:27:08.422Z,31.41
2022-09-06T09:32:55.576Z,30.59
2022-09-06T09:35:27.701Z,30.27
2022-09-06T09:38:10.857Z,30.07
2022-09-06T09:40:50.678Z,29.88
2022-09-06T09:43:35.793Z,29.69
2022-09-06T09:46:24.944Z,29.32
2022-09-06T09:49:22.106Z,28.92
2022-09-06T09:52:26.856Z,28.52
2022-09-06T09:55:04.888Z,28.09
2022-09-06T09:57:49.508Z,27.69
2022-09-06T10:00:39.958Z,27.19
2022-09-06T10:03:14.999Z,26.82
2022-09-06T10:06:02.515Z,26.41
2022-09-06T10:08:40.229Z,25.97
2022-09-06T10:11:14.345Z,25.75
2022-09-06T10:13:43.409Z,25.69
2022-09-06T10:16:13.577Z,25.63
2022-09-06T10:18:46.607Z,25.58
2022-09-06T10:21:24.154Z,25.66
2022-09-06T10:24:26.766Z,25.60
2022-09-06T10:27:03.558Z,25.57
2022-09-06T10:29:50.425Z,25.58
2022-09-06T10:32:31.942Z,25.59
2022-09-06T10:35:11.195Z,25.50
2022-09-06T10:37:39.715Z,25.61
2022-09-06T10:40:12.214Z,25.70
2022-09-06T10:42:56.501Z,25.82
2022-09-06T10:45:36.892Z,25.73
2022-09-06T10:48:14.699Z,25.55
2022-09-06T10:51:23.003Z,25.39
2022-09-06T10:53:58.636Z,25.29
2022-09-06T10:56:50.239Z,25.14
2022-09-06T11:02:44.322Z,25.07
2022-09-06T11:11:23.433Z,25.01
2022-09-06T11:13:54.040Z,24.93
2022-09-06T11:16:28.542Z,24.87
2022-09-06T11:19:17.990Z,24.67
2022-09-06T11:22:05.794Z,24.51
2022-09-06T11:24:37.321Z,24.34
2022-09-06T11:27:07.052Z,24.18
2022-09-06T11:29:40.182Z,24.00
2022-09-06T11:32:29.092Z,24.03
2022-09-06T11:35:01.094Z,24.13
2022-09-06T11:37:43.233Z,24.38
2022-09-06T11:42:59.595Z,24.57
2022-09-06T11:45:52.122Z,24.59
2022-09-06T11:48:24.565Z,24.36
2022-09-06T11:50:55.711Z,24.43
2022-09-06T11:53:28.803Z,24.41
2022-09-06T11:55:58.970Z,24.34
2022-09-06T11:58:34.080Z,24.25
2022-09-06T12:01:21.103Z,24.32
2022-09-06T12:04:06.201Z,24.60
2022-09-06T12:07:05.320Z,24.73
2022-09-06T12:09:36.881Z,24.45
2022-09-06T12:12:06.042Z,24.36
2022-09-06T12:14:41.444Z,24.28
2022-09-06T12:17:11.705Z,24.16
2022-09-06T12:19:53.851Z,24.19
2022-09-06T12:22:36.916Z,24.23
2022-09-06T12:25:23.966Z,24.19
2022-09-06T12:28:00.310Z,24.18
2022-09-06T12:30:42.622Z,24.15
2022-09-06T12:33:38.983Z,24.04
2022-09-06T12:36:18.647Z,23.79
2022-09-06T12:39:08.500Z,23.74
2022-09-06T12:41:43.249Z,23.75
2022-09-06T12:44:15.120Z,23.73
2022-09-06T12:46:51.968Z,23.60
2022-09-06T12:49:26.049Z,23.49
2022-09-06T12:52:07.020Z,23.49
2022-09-06T12:54:43.806Z,23.54
2022-09-06T12:57:21.867Z,23.59
2022-09-06T12:59:54.172Z,23.57
2022-09-06T13:02:41.372Z,23.59
2022-09-06T13:05:13.502Z,23.52
2022-09-06T13:07:52.538Z,23.50
2022-09-06T13:10:26.691Z,23.53
2022-09-06T13:12:58.984Z,23.48
2022-09-06T13:15:31.580Z,23.41
2022-09-06T13:18:27.793Z,23.30
2022-09-06T13:21:01.885Z,23.29
2022-09-06T13:23:40.069Z,23.26
2022-09-06T13:26:08.888Z,23.16
2022-09-06T13:28:38.888Z,23.07
2022-09-06T13:31:14.625Z,22.93
2022-09-06T13:33:44.067Z,22.82
2022-09-06T13:36:12.842Z,22.78
2022-09-06T13:38:44.283Z,22.78
2022-09-06T13:41:25.958Z,22.73
2022-09-06T13:44:04.910Z,22.62
2022-09-06T13:46:35.342Z,22.63
2022-09-06T13:49:05.868Z,22.60
2022-09-06T13:51:35.795Z,22.57
2022-09-06T13:54:10.746Z,22.52
2022-09-06T13:56:40.996Z,22.47
2022-09-06T13:59:12.397Z,22.43
2022-09-06T14:01:44.938Z,22.43
2022-09-06T14:04:19.956Z,22.48
2022-09-06T14:06:51.383Z,22.51
2022-09-06T14:09:20.987Z,22.45
2022-09-06T14:11:52.654Z,22.38
2022-09-06T14:14:23.993Z,22.37
2022-09-06T14:16:54.375Z,22.32
2022-09-06T14:19:23.742Z,22.25
2022-09-06T14:21:54.621Z,22.19
2022-09-06T14:24:23.861Z,22.16
2022-09-06T14:26:52.706Z,22.15
2022-09-06T14:29:24.624Z,22.04
2022-09-06T14:31:55.911Z,22.04
2022-09-06T14:34:26.071Z,22.07
2022-09-06T14:36:55.053Z,22.15
2022-09-06T14:39:23.517Z,22.29
2022-09-06T14:41:52.549Z,22.41
2022-09-06T14:44:22.535Z,22.49
2022-09-06T14:46:53.773Z,22.53
2022-09-06T14:49:22.325Z,22.57
2022-09-06T14:51:54.034Z,22.63
2022-09-06T14:54:26.194Z,22.62
2022-09-06T14:56:57.901Z,22.55
2022-09-06T14:59:27.168Z,22.46
2022-09-06T15:01:57.875Z,22.43
2022-09-06T15:04:30.197Z,22.34
2022-09-06T15:07:01.065Z,22.25
2022-09-06T15:09:30.762Z,22.11
2022-09-06T15:12:01.458Z,22.03
2022-09-06T15:14:30.530Z,21.94
2022-09-06T15:17:00.975Z,21.86
2022-09-06T15:19:32.232Z,21.77
2022-09-06T15:22:01.407Z,21.70
2022-09-06T15:24:30.660Z,21.61
2022-09-06T15:27:39.837Z,21.49
2022-09-06T15:30:12.005Z,21.35
2022-09-06T15:32:43.454Z,21.27
2022-09-06T15:35:12.410Z,21.18
2022-09-06T15:37:42.738Z,21.11
2022-09-06T15:40:14.222Z,21.07
2022-09-06T15:42:45.314Z,21.01
2022-09-06T15:45:14.373Z,21.01
2022-09-06T15:47:44.069Z,20.99
2022-09-06T15:50:25.306Z,20.95
2022-09-06T15:53:03.527Z,20.92
2022-09-06T15:55:50.820Z,20.94
2022-09-06T15:58:20.332Z,20.91
2022-09-06T16:01:20.796Z,20.88
2022-09-06T16:03:55.576Z,20.83
2022-09-06T16:06:28.870Z,20.82
2022-09-06T16:09:05.555Z,20.78
2022-09-06T16:11:37.206Z,20.73
2022-09-06T16:14:08.140Z,20.71
2022-09-06T16:16:37.505Z,20.66
2022-09-06T16:19:07.418Z,20.62
2022-09-06T16:21:40.429Z,20.55
2022-09-06T16:24:11.775Z,20.47
2022-09-06T16:26:45.062Z,20.42
2022-09-06T16:29:16.620Z,20.36
2022-09-06T16:31:46.789Z,20.29
2022-09-06T16:34:16.755Z,20.21
2022-09-06T16:36:47.129Z,20.12
2022-09-06T16:39:16.045Z,20.08
2022-09-06T16:41:46.822Z,20.00
2022-09-06T16:44:18.579Z,19.95
2022-09-06T16:46:50.871Z,19.87
2022-09-06T16:49:21.112Z,19.82
2022-09-06T16:51:51.708Z,19.76
2022-09-06T16:54:21.088Z,19.70
2022-09-06T16:56:53.316Z,19.65
2022-09-06T16:59:22.630Z,19.56
2022-09-06T17:01:51.856Z,19.45
2022-09-06T17:04:21.268Z,19.33
2022-09-06T17:06:51.483Z,19.22
2022-09-06T17:09:21.223Z,19.11
2022-09-06T17:11:50.557Z,19.01
2022-09-06T17:14:19.562Z,18.93
2022-09-06T17:17:07.154Z,18.87
2022-09-06T17:19:45.074Z,18.78
2022-09-06T17:22:15.989Z,18.69
2022-09-06T17:24:45.105Z,18.64
2022-09-06T17:27:15.174Z,18.56
2022-09-06T17:29:44.021Z,18.51
2022-09-06T17:32:13.267Z,18.41
2022-09-06T17:34:42.656Z,18.35
2022-09-06T17:37:12.253Z,18.25
2022-09-06T17:39:42.414Z,18.17
2022-09-06T17:42:11.810Z,18.02
2022-09-06T17:44:40.287Z,17.85
2022-09-06T17:47:12.874Z,17.76
2022-09-06T17:49:45.078Z,17.69
2022-09-06T17:52:15.140Z,17.65
2022-09-06T17:54:46.857Z,17.66
2022-09-06T17:57:18.717Z,17.62
2022-09-06T17:59:47.937Z,17.57
2022-09-06T18:02:16.918Z,17.52
2022-09-06T18:04:45.923Z,17.47
2022-09-06T18:07:14.812Z,17.39
2022-09-06T18:09:43.891Z,17.28
2022-09-06T18:12:14.176Z,17.13
2022-09-06T18:14:44.149Z,16.99
2022-09-06T18:17:13.671Z,16.86
2022-09-06T18:19:45.077Z,16.78
2022-09-06T18:22:13.775Z,16.73
2022-09-06T18:24:42.286Z,16.66
2022-09-06T18:27:12.619Z,16.61
2022-09-06T18:29:41.598Z,16.61
2022-09-06T18:32:10.304Z,16.59
2022-09-06T18:34:39.754Z,16.57
2022-09-06T18:37:09.245Z,16.59
2022-09-06T18:39:37.758Z,16.56
2022-09-06T18:42:11.382Z,16.49
2022-09-06T18:44:40.739Z,16.40
2022-09-06T18:47:12.772Z,16.29
2022-09-06T18:49:44.271Z,16.22
2022-09-06T18:52:15.397Z,16.15
2022-09-06T18:54:45.268Z,16.06
2022-09-06T18:57:15.536Z,16.00
2022-09-06T18:59:44.959Z,15.98
2022-09-06T19:02:14.314Z,15.94
2022-09-06T19:04:42.838Z,15.87
2022-09-06T19:07:11.682Z,15.83
2022-09-06T19:09:40.046Z,15.78
2022-09-06T19:12:12.049Z,15.73
2022-09-06T19:14:40.682Z,15.70
2022-09-06T19:17:09.342Z,15.66
2022-09-06T19:19:39.431Z,15.64
2022-09-06T19:22:07.851Z,15.61
2022-09-06T19:24:39.626Z,15.58
2022-09-06T19:27:08.420Z,15.54
2022-09-06T19:29:38.251Z,15.50
2022-09-06T19:32:06.976Z,15.45
2022-09-06T19:34:35.802Z,15.40
2022-09-06T19:37:04.235Z,15.33
2022-09-06T19:39:37.007Z,15.26
2022-09-06T19:42:06.218Z,15.23
2022-09-06T19:44:34.597Z,15.17
2022-09-06T19:47:03.557Z,15.09
2022-09-06T19:49:32.376Z,15.04
2022-09-06T19:52:01.800Z,15.00
2022-09-06T19:54:31.289Z,14.98
2022-09-06T19:57:00.342Z,14.94
2022-09-06T19:59:28.876Z,14.86
2022-09-06T20:01:57.745Z,14.78
2022-09-06T20:04:28.487Z,14.76
2022-09-06T20:06:58.273Z,14.75
2022-09-06T20:09:26.774Z,14.70
2022-09-06T20:11:55.496Z,14.63
2022-09-06T20:14:25.956Z,14.59
2022-09-06T20:16:54.376Z,14.58
2022-09-06T20:19:22.821Z,14.56
2022-09-06T20:21:51.177Z,14.51
2022-09-06T20:24:21.207Z,14.52
2022-09-06T20:26:52.295Z,14.52
2022-09-06T20:29:21.530Z,14.51
2022-09-06T20:31:50.169Z,14.53
2022-09-06T20:34:18.991Z,14.59
2022-09-06T20:36:47.683Z,14.59
2022-09-06T20:39:16.070Z,14.59
2022-09-06T20:41:45.926Z,14.58
2022-09-06T20:44:15.657Z,14.58
2022-09-06T20:46:47.649Z,14.61
2022-09-06T20:49:16.881Z,14.66
2022-09-06T20:51:45.282Z,14.68
2022-09-06T20:54:14.304Z,14.67
2022-09-06T20:56:44.411Z,14.68
2022-09-06T20:59:13.760Z,14.68
2022-09-06T21:01:49.101Z,14.68
2022-09-06T21:04:18.337Z,14.66
2022-09-06T21:06:46.983Z,14.65
2022-09-06T21:09:15.799Z,14.67
2022-09-06T21:11:45.535Z,14.70
2022-09-06T21:14:15.187Z,14.77
2022-09-06T21:16:43.631Z,14.81
2022-09-06T21:19:12.779Z,14.81
2022-09-06T21:21:44.104Z,14.80
2022-09-06T21:24:16.376Z,14.81
2022-09-06T21:26:45.491Z,14.84
2022-09-06T21:29:14.217Z,14.88
2022-09-06T21:31:42.683Z,14.89
2022-09-06T21:34:17.193Z,14.91
2022-09-06T21:36:46.307Z,14.93
2022-09-06T21:39:15.108Z,14.98
2022-09-06T21:41:44.804Z,15.02
2022-09-06T21:44:13.764Z,15.04
2022-09-06T21:46:43.157Z,15.05
2022-09-06T21:49:14.018Z,15.02
2022-09-06T21:51:43.563Z,15.00
2022-09-06T21:54:12.981Z,14.99
2022-09-06T21:56:41.545Z,14.98
2022-09-06T21:59:11.205Z,14.96
2022-09-06T22:01:41.021Z,14.88
2022-09-06T22:04:10.618Z,14.83
2022-09-06T22:06:39.061Z,14.76
2022-09-06T22:09:11.285Z,14.71
2022-09-06T22:11:43.216Z,14.70
2022-09-06T22:14:15.500Z,14.65
2022-09-06T22:16:43.741Z,14.60
2022-09-06T22:19:13.699Z,14.56
2022-09-06T22:21:41.958Z,14.52
2022-09-06T22:24:13.428Z,14.51
2022-09-06T22:26:42.560Z,14.53
2022-09-06T22:29:15.851Z,14.55
2022-09-06T22:31:46.282Z,14.54
2022-09-06T22:34:14.487Z,14.51
2022-09-06T22:36:43.741Z,14.43
2022-09-06T22:39:12.719Z,14.44
2022-09-06T22:41:41.073Z,14.48
2022-09-06T22:44:09.560Z,14.51
2022-09-06T22:46:38.393Z,14.54
2022-09-06T22:49:10.130Z,14.56
2022-09-06T22:51:40.746Z,14.58
2022-09-06T22:54:10.006Z,14.59
2022-09-06T22:56:40.056Z,14.61
2022-09-06T22:59:08.879Z,14.61
2022-09-06T23:01:40.960Z,14.61
2022-09-06T23:04:10.023Z,14.57
2022-09-06T23:06:38.247Z,14.54
2022-09-06T23:09:07.210Z,14.49
2022-09-06T23:11:36.167Z,14.45
2022-09-06T23:14:05.722Z,14.44
2022-09-06T23:16:34.097Z,14.49
2022-09-06T23:19:02.705Z,14.54
2022-09-06T23:21:31.316Z,14.58
2022-09-06T23:24:00.188Z,14.60
2022-09-06T23:26:30.716Z,14.64
2022-09-06T23:28:59.241Z,14.68
2022-09-06T23:31:29.736Z,14.72
2022-09-06T23:33:59.887Z,14.73
2022-09-06T23:36:28.481Z,14.73
2022-09-06T23:38:57.450Z,14.72
2022-09-06T23:41:26.201Z,14.73
2022-09-06T23:43:56.260Z,14.75
2022-09-06T23:46:25.805Z,14.77
2022-09-06T23:48:53.981Z,14.78
2022-09-06T23:51:22.243Z,14.79
2022-09-06T23:53:50.641Z,14.80
2022-09-06T23:56:19.697Z,14.82
2022-09-06T23:58:48.706Z,14.85
